ADDS METAR Data INFO
IDs: Format: Raw Decoded Include TAF

Data at: 1603 UTC 21 Sep 2017

METAR for:KIAH (Houston/Bush Intl, TX, US)
Text:KIAH 211553Z 11006KT 7SM FEW009 BKN022 BKN250 28/25 A2999 RMK AO2 RAB27E50 TSB09E40 SLP154 CB DSNT NE AND NW MOV N P0002 T02780250
Temperature: 27.8°C ( 82°F)
Dewpoint: 25.0°C ( 77°F) [RH = 85%]
Pressure (altimeter):29.99 inches Hg (1015.7 mb) [Sea level pressure: 1015.4 mb]
Winds:from the ESE (110 degrees) at 7 MPH (6 knots; 3.1 m/s)
Visibility: 7 sm ( 11 km)
Ceiling:2200 feet AGL
Clouds: few clouds at 900 feet AGL, broken clouds at 2200 feet AGL, broken clouds at 25000 feet AGL

METAR for:KHOU (Houston/Hobby Arpt, TX, US)
Text:KHOU 211553Z 12011KT 10SM FEW020CB SCT090 SCT250 31/24 A2997 RMK AO2 LTG DSNT SE SLP154 CB SHRA NE-E CB DSNT N TCU SE T03110244
Temperature: 31.1°C ( 88°F)
Dewpoint: 24.4°C ( 76°F) [RH = 68%]
Pressure (altimeter):29.97 inches Hg (1015.0 mb) [Sea level pressure: 1015.4 mb]
Winds:from the ESE (120 degrees) at 13 MPH (11 knots; 5.7 m/s)
Visibility:10 or more sm (16+ km)
Ceiling:at least 12,000 feet AGL
Clouds: few clouds at 2000 feet AGL, scattered clouds at 9000 feet AGL, scattered clouds at 25000 feet AGL

METAR for:KGLS (Galveston/Scholes In, TX, US)
Text:KGLS 211552Z 16013KT 10SM SCT020 32/25 A3000 RMK AO2 LTG DSNT NW SLP160 T03170250
Temperature: 31.7°C ( 89°F)
Dewpoint: 25.0°C ( 77°F) [RH = 68%]
Pressure (altimeter):30.00 inches Hg (1016.0 mb) [Sea level pressure: 1016.0 mb]
Winds:from the SSE (160 degrees) at 15 MPH (13 knots; 6.7 m/s)
Visibility:10 or more sm (16+ km)
Ceiling:at least 12,000 feet AGL
Clouds: scattered clouds at 2000 feet AGL

METAR for:KLVJ (Houston/Pearland Rgn, TX, US)
Text:KLVJ 211553Z AUTO 14008KT 9SM VCTS FEW020 SCT050 BKN070 30/24 A3000 RMK AO2 SLP158 T03000244
Temperature: 30.0°C ( 86°F)
Dewpoint: 24.4°C ( 76°F) [RH = 72%]
Pressure (altimeter):30.00 inches Hg (1016.0 mb) [Sea level pressure: 1015.8 mb]
Winds:from the SE (140 degrees) at 9 MPH (8 knots; 4.1 m/s)
Visibility: 9 sm ( 14 km)
Ceiling:7000 feet AGL
Clouds: few clouds at 2000 feet AGL, scattered clouds at 5000 feet AGL, broken clouds at 7000 feet AGL
Weather:VCTS (thunderstorm in vicinity)
QC Flag:automated observation with no human augmentation

METAR for:KSGR (Houston/Sugar Land R, TX, US)
Text:KSGR 211553Z VRB05KT 10SM -RA FEW025 SCT042 BKN060 31/26 A2997 RMK AO2 LTG DSNT SE RAB05E16B44 SLP149 P0000 T03060261
Temperature: 30.6°C ( 87°F)
Dewpoint: 26.1°C ( 79°F) [RH = 77%]
Pressure (altimeter):29.97 inches Hg (1015.0 mb) [Sea level pressure: 1014.9 mb]
Winds:variable direction winds at 6 MPH (5 knots; 2.6 m/s)
Visibility:10 or more sm (16+ km)
Ceiling:6000 feet AGL
Clouds: few clouds at 2500 feet AGL, scattered clouds at 4200 feet AGL, broken clouds at 6000 feet AGL
Weather:-RA (light rain)

METAR for:KDWH (Houston/Hooks Mem, TX, US)
Text:KDWH 211600Z 21004KT 10SM BKN023 BKN047 BKN060 29/24 A2998 RMK AO2 LTG DSNT NE T02940244
Temperature: 29.4°C ( 85°F)
Dewpoint: 24.4°C ( 76°F) [RH = 75%]
Pressure (altimeter):29.98 inches Hg (1015.3 mb)
Winds:from the SSW (210 degrees) at 5 MPH (4 knots; 2.1 m/s)
Visibility:10 or more sm (16+ km)
Ceiling:2300 feet AGL
Clouds: broken clouds at 2300 feet AGL, broken clouds at 4700 feet AGL, broken clouds at 6000 feet AGL

METAR for:KCLL (College Station/East, TX, US)
Text:KCLL 211553Z 19008KT 10SM SCT018 30/24 A2999 RMK AO2 SLP148 T03000244
Temperature: 30.0°C ( 86°F)
Dewpoint: 24.4°C ( 76°F) [RH = 72%]
Pressure (altimeter):29.99 inches Hg (1015.7 mb) [Sea level pressure: 1014.8 mb]
Winds:from the S (190 degrees) at 9 MPH (8 knots; 4.1 m/s)
Visibility:10 or more sm (16+ km)
Ceiling:at least 12,000 feet AGL
Clouds: scattered clouds at 1800 feet AGL

METAR for:KUTS (Huntsville Muni, TX, US)
Text:KUTS 211553Z AUTO VRB03KT 7SM CLR 30/22 A3000 RMK AO2 SLP153 T03000222
Temperature: 30.0°C ( 86°F)
Dewpoint: 22.2°C ( 72°F) [RH = 63%]
Pressure (altimeter):30.00 inches Hg (1016.0 mb) [Sea level pressure: 1015.3 mb]
Winds:variable direction winds at 3 MPH (3 knots; 1.5 m/s)
Visibility: 7 sm ( 11 km)
Ceiling:at least 12,000 feet AGL
Clouds:sky clear below 12,000 feet AGL
QC Flag:automated observation with no human augmentation

METAR for:KCXO (Conroe/Executive Arp, TX, US)
Text:KCXO 211553Z 12007KT 10SM BKN017 OVC025 29/25 A2999 RMK AO2 LTG DSNT S RAB32E47 SLP153 P0000 T02890250
Temperature: 28.9°C ( 84°F)
Dewpoint: 25.0°C ( 77°F) [RH = 80%]
Pressure (altimeter):29.99 inches Hg (1015.7 mb) [Sea level pressure: 1015.3 mb]
Winds:from the ESE (120 degrees) at 8 MPH (7 knots; 3.6 m/s)
Visibility:10 or more sm (16+ km)
Ceiling:1700 feet AGL
Clouds: broken clouds at 1700 feet AGL, overcast cloud deck at 2500 feet AGL

METAR for:KLBX (Angleton/Texas Gulf, TX, US)
Text:KLBX 211553Z AUTO 22003KT 10SM SCT026 SCT037 BKN055 28/24 A2998 RMK AO2 LTG DSNT NE RAB13E34 SLP151 P0000 T02830244
Temperature: 28.3°C ( 83°F)
Dewpoint: 24.4°C ( 76°F) [RH = 79%]
Pressure (altimeter):29.98 inches Hg (1015.3 mb) [Sea level pressure: 1015.1 mb]
Winds:from the SW (220 degrees) at 3 MPH (3 knots; 1.5 m/s)
Visibility:10 or more sm (16+ km)
Ceiling:5500 feet AGL
Clouds: scattered clouds at 2600 feet AGL, scattered clouds at 3700 feet AGL, broken clouds at 5500 feet AGL
QC Flag:automated observation with no human augmentation

METAR for:KPSX (Palacios Muni, TX, US)
Text:KPSX 211553Z AUTO 18011KT 9SM FEW021 FEW034 30/25 A2996 RMK AO2 SLP145 T03000250
Temperature: 30.0°C ( 86°F)
Dewpoint: 25.0°C ( 77°F) [RH = 75%]
Pressure (altimeter):29.96 inches Hg (1014.6 mb) [Sea level pressure: 1014.5 mb]
Winds:from the S (180 degrees) at 13 MPH (11 knots; 5.7 m/s)
Visibility: 9 sm ( 14 km)
Ceiling:at least 12,000 feet AGL
Clouds: few clouds at 2100 feet AGL, few clouds at 3400 feet AGL
QC Flag:automated observation with no human augmentation